createdAt,value
2023-10-13T00:02:12.085Z,6.47
2023-10-13T00:05:14.706Z,5.47
2023-10-13T00:08:18.799Z,6.78
2023-10-13T00:11:23.048Z,8.98
2023-10-13T00:14:34.272Z,5.75
2023-10-13T00:17:39.797Z,6.70
2023-10-13T00:20:51.312Z,7.72
2023-10-13T00:23:54.057Z,6.25
2023-10-13T00:26:56.887Z,6.88
2023-10-13T00:30:21.165Z,5.70
2023-10-13T00:33:24.245Z,5.63
2023-10-13T00:36:26.590Z,5.13
2023-10-13T00:39:30.079Z,7.78
2023-10-13T00:42:52.131Z,5.63
2023-10-13T00:45:58.133Z,6.75
2023-10-13T00:49:01.387Z,5.73
2023-10-13T00:52:03.870Z,5.65
2023-10-13T00:55:09.579Z,5.65
2023-10-13T00:58:13.787Z,5.82
2023-10-13T01:01:19.326Z,6.43
2023-10-13T01:04:24.433Z,5.57
2023-10-13T01:07:26.916Z,5.65
2023-10-13T01:10:33.527Z,5.85
2023-10-13T01:13:38.376Z,5.60
2023-10-13T01:16:47.235Z,5.10
2023-10-13T01:19:50.385Z,7.20
2023-10-13T01:22:59.056Z,6.13
2023-10-13T01:26:06.230Z,5.97
2023-10-13T01:29:14.898Z,5.55
2023-10-13T01:32:19.569Z,7.15
2023-10-13T01:35:27.757Z,6.03
2023-10-13T01:38:34.502Z,5.82
2023-10-13T01:41:40.250Z,6.05
2023-10-13T01:44:42.618Z,6.22
2023-10-13T01:47:47.874Z,6.40
2023-10-13T01:50:57.245Z,5.87
2023-10-13T01:53:59.971Z,5.70
2023-10-13T01:57:04.894Z,5.55
2023-10-13T02:00:20.262Z,7.28
2023-10-13T02:03:23.104Z,5.97
2023-10-13T02:06:25.675Z,5.83
2023-10-13T02:09:28.121Z,6.28
2023-10-13T02:12:37.016Z,8.30
2023-10-13T02:15:43.875Z,5.35
2023-10-13T02:18:52.579Z,6.57
2023-10-13T02:22:00.053Z,5.40
2023-10-13T02:25:07.030Z,6.70
2023-10-13T02:28:14.993Z,5.50
2023-10-13T02:31:19.131Z,7.07
2023-10-13T02:34:24.371Z,5.82
2023-10-13T02:37:29.067Z,5.60
2023-10-13T02:40:36.757Z,7.47
2023-10-13T02:43:39.456Z,5.97
2023-10-13T02:46:41.963Z,5.50
2023-10-13T02:49:45.116Z,6.43
2023-10-13T02:52:51.167Z,5.70
2023-10-13T02:56:07.235Z,6.60
2023-10-13T02:59:09.574Z,5.35
2023-10-13T03:02:29.347Z,5.90
2023-10-13T03:05:36.667Z,6.32
2023-10-13T03:08:39.756Z,5.37
2023-10-13T03:11:52.175Z,5.55
2023-10-13T03:14:58.390Z,5.72
2023-10-13T03:18:00.906Z,6.10
2023-10-13T03:21:03.895Z,5.40
2023-10-13T03:24:07.905Z,6.50
2023-10-13T03:27:10.728Z,6.45
2023-10-13T03:30:16.384Z,4.97
2023-10-13T03:33:27.077Z,5.63
2023-10-13T03:36:47.866Z,6.25
2023-10-13T03:39:53.662Z,6.27
2023-10-13T03:43:13.732Z,5.90
2023-10-13T03:46:19.560Z,5.68
2023-10-13T03:49:23.238Z,5.20
2023-10-13T03:52:26.788Z,5.93
2023-10-13T03:55:35.847Z,6.80
2023-10-13T03:58:48.437Z,6.30
2023-10-13T04:02:00.346Z,6.35
2023-10-13T04:05:09.581Z,6.03
2023-10-13T04:08:27.038Z,6.35
2023-10-13T04:11:47.784Z,7.07
2023-10-13T04:14:59.113Z,7.75
2023-10-13T04:18:01.995Z,11.52
2023-10-13T04:21:20.084Z,13.13
2023-10-13T04:24:41.077Z,8.85
2023-10-13T04:27:55.483Z,11.53
2023-10-13T04:30:58.345Z,9.43
2023-10-13T04:34:03.716Z,8.63
2023-10-13T04:37:35.116Z,7.00
2023-10-13T04:40:57.126Z,6.70
2023-10-13T04:44:28.858Z,7.80
2023-10-13T04:47:42.264Z,8.73
2023-10-13T04:50:51.532Z,8.38
2023-10-13T04:54:12.196Z,7.18
2023-10-13T04:57:35.205Z,10.57
2023-10-13T05:01:15.961Z,7.10
2023-10-13T05:04:37.236Z,9.10
2023-10-13T05:07:59.071Z,7.50
2023-10-13T05:11:24.617Z,8.15
2023-10-13T05:14:45.587Z,7.28
2023-10-13T05:18:06.626Z,9.33
2023-10-13T05:21:27.647Z,9.80
2023-10-13T05:24:49.042Z,12.25
2023-10-13T05:28:14.241Z,11.98
2023-10-13T05:31:40.720Z,14.40
2023-10-13T05:35:04.873Z,11.00
2023-10-13T05:38:25.758Z,9.85
2023-10-13T05:41:46.400Z,12.00
2023-10-13T05:45:17.965Z,11.10
2023-10-13T05:48:35.458Z,11.63
2023-10-13T05:51:40.716Z,14.93
2023-10-13T05:55:01.755Z,15.18
2023-10-13T05:58:23.090Z,11.30
2023-10-13T06:01:44.175Z,12.65
2023-10-13T06:05:05.341Z,14.02
2023-10-13T06:08:26.650Z,13.27
2023-10-13T06:11:47.538Z,18.85
2023-10-13T06:15:08.199Z,20.00
2023-10-13T06:18:28.914Z,11.02
2023-10-13T06:21:49.902Z,12.85
2023-10-13T06:25:11.170Z,16.17
2023-10-13T06:28:32.194Z,12.43
2023-10-13T06:31:36.502Z,14.10
2023-10-13T06:34:43.828Z,15.23
2023-10-13T06:37:46.427Z,19.58
2023-10-13T06:40:53.750Z,14.73
2023-10-13T06:44:01.858Z,10.80
2023-10-13T06:47:05.573Z,12.88
2023-10-13T06:50:16.833Z,13.43
2023-10-13T06:53:22.830Z,15.02
2023-10-13T06:56:31.785Z,11.23
2023-10-13T06:59:37.812Z,14.40
2023-10-13T07:02:40.508Z,13.88
2023-10-13T07:05:43.316Z,17.05
2023-10-13T07:08:50.418Z,16.02
2023-10-13T07:11:54.053Z,18.63
2023-10-13T07:15:04.735Z,21.88
2023-10-13T07:18:07.480Z,21.10
2023-10-13T07:21:13.273Z,18.65
2023-10-13T07:24:17.144Z,23.05
2023-10-13T07:27:26.633Z,25.67
2023-10-13T07:30:29.341Z,22.15
2023-10-13T07:33:32.519Z,26.58
2023-10-13T07:36:40.582Z,24.60
2023-10-13T07:39:45.967Z,20.67
2023-10-13T07:42:48.499Z,23.17
2023-10-13T07:46:00.020Z,20.98
2023-10-13T07:49:21.705Z,19.52
2023-10-13T07:52:31.058Z,19.33
2023-10-13T07:55:35.119Z,17.58
2023-10-13T07:58:49.395Z,18.63
2023-10-13T08:02:14.735Z,20.13
2023-10-13T08:05:40.091Z,21.00
2023-10-13T08:08:45.112Z,21.83
2023-10-13T08:11:47.585Z,20.65
2023-10-13T08:15:13.049Z,18.43
2023-10-13T08:18:31.376Z,18.85
2023-10-13T08:21:35.335Z,19.58
2023-10-13T08:24:40.692Z,21.45
2023-10-13T08:28:06.201Z,18.10
2023-10-13T08:31:23.390Z,13.47
2023-10-13T08:34:26.732Z,18.35
2023-10-13T08:37:57.344Z,17.33
2023-10-13T13:15:47.514Z,13.77
2023-10-13T13:18:49.907Z,16.02
2023-10-13T13:21:52.317Z,15.30
2023-10-13T13:24:54.702Z,17.80
2023-10-13T13:27:58.729Z,14.57
2023-10-13T13:31:01.183Z,12.98
2023-10-13T13:34:05.220Z,17.55
2023-10-13T13:37:07.599Z,13.30
2023-10-13T13:40:19.448Z,16.17
2023-10-13T13:43:33.248Z,13.35
2023-10-13T13:46:42.344Z,16.25
2023-10-13T13:49:52.946Z,16.13
2023-10-13T13:53:01.458Z,14.93
2023-10-13T13:56:04.299Z,14.20
2023-10-13T13:59:10.606Z,18.30
2023-10-13T14:02:22.221Z,17.63
2023-10-13T14:05:24.743Z,18.73
2023-10-13T14:08:28.651Z,15.13
2023-10-13T14:11:41.340Z,16.85
2023-10-13T14:14:51.238Z,16.40
2023-10-13T14:17:53.726Z,17.15
2023-10-13T14:20:57.309Z,13.90
2023-10-13T14:24:02.033Z,15.53
2023-10-13T14:27:19.046Z,14.88
2023-10-13T14:30:22.946Z,18.15
2023-10-13T14:33:27.015Z,18.00
2023-10-13T14:36:36.077Z,16.13
2023-10-13T14:39:38.663Z,16.57
2023-10-13T14:42:44.033Z,17.35
2023-10-13T14:45:46.523Z,14.80
2023-10-13T14:48:50.149Z,15.80
2023-10-13T14:51:52.540Z,13.73
2023-10-13T14:54:58.196Z,16.53
2023-10-13T14:58:00.635Z,14.45
2023-10-13T15:01:04.490Z,19.67
2023-10-13T15:04:06.922Z,17.75
2023-10-13T15:07:09.333Z,23.98
2023-10-13T15:10:20.584Z,19.13
2023-10-13T15:13:23.971Z,15.73
2023-10-13T15:16:28.338Z,15.63
2023-10-13T15:19:37.206Z,17.65
2023-10-13T15:22:39.781Z,16.13
2023-10-13T15:25:50.603Z,15.40
2023-10-13T15:28:54.783Z,15.32
2023-10-13T15:31:57.296Z,14.80
2023-10-13T15:35:00.814Z,16.95
2023-10-13T15:38:03.428Z,18.30
2023-10-13T15:41:09.406Z,20.23
2023-10-13T15:44:14.369Z,21.30
2023-10-13T15:50:23.098Z,24.50
2023-10-13T15:53:26.685Z,19.55
2023-10-13T15:56:29.182Z,18.73
2023-10-13T15:59:31.751Z,20.67
2023-10-13T16:02:34.228Z,23.23
2023-10-13T16:05:38.358Z,24.42
2023-10-13T16:08:44.066Z,17.73
2023-10-13T16:11:47.154Z,19.43
2023-10-13T16:14:49.548Z,18.20
2023-10-13T16:17:55.085Z,17.85
2023-10-13T16:20:57.544Z,22.55
2023-10-13T16:23:59.996Z,19.70
2023-10-13T16:27:02.455Z,20.67
2023-10-13T16:30:05.248Z,18.17
2023-10-13T16:33:07.632Z,17.50
2023-10-13T16:36:11.499Z,15.57
2023-10-13T16:39:17.919Z,18.08
2023-10-13T16:42:20.531Z,14.70
2023-10-13T16:45:23.080Z,18.33
2023-10-13T16:48:27.932Z,18.02
2023-10-13T16:51:30.539Z,18.73
2023-10-13T16:54:33.030Z,15.73
2023-10-13T16:57:35.822Z,17.13
2023-10-13T17:00:39.378Z,17.95
2023-10-13T17:03:46.267Z,20.38
2023-10-13T17:06:48.896Z,15.05
2023-10-13T17:09:52.439Z,13.93
2023-10-13T17:12:55.556Z,16.70
2023-10-13T17:16:00.832Z,15.55
2023-10-13T17:19:03.387Z,14.93
2023-10-13T17:22:05.946Z,16.92
2023-10-13T17:25:08.600Z,17.25
2023-10-13T17:28:16.740Z,16.40
2023-10-13T17:31:19.426Z,19.75
2023-10-13T17:34:22.552Z,17.83
2023-10-13T17:37:25.118Z,14.77
2023-10-13T17:40:28.818Z,16.80
2023-10-13T17:43:36.396Z,15.37
2023-10-13T17:46:41.144Z,13.60
2023-10-13T17:49:43.647Z,14.00
2023-10-13T17:52:49.293Z,13.45
2023-10-13T17:55:53.229Z,16.65
2023-10-13T17:58:56.423Z,14.93
2023-10-13T18:01:59.252Z,14.45
2023-10-13T18:05:01.708Z,17.90
2023-10-13T18:08:04.707Z,14.68
2023-10-13T18:11:07.490Z,14.23
2023-10-13T18:14:12.798Z,14.30
2023-10-13T18:17:17.217Z,15.18
2023-10-13T18:20:21.954Z,14.57
2023-10-13T18:23:24.391Z,13.40
2023-10-13T18:26:26.819Z,14.82
2023-10-13T18:29:29.270Z,15.87
2023-10-13T18:32:31.646Z,15.77
2023-10-13T18:35:34.605Z,14.90
2023-10-13T18:38:37.027Z,12.90
2023-10-13T18:41:39.738Z,13.60
2023-10-13T18:44:42.342Z,13.33
2023-10-13T18:47:46.436Z,13.10
2023-10-13T18:50:49.803Z,16.80
2023-10-13T18:53:52.184Z,13.13
2023-10-13T18:56:55.632Z,16.58
2023-10-13T18:59:57.965Z,15.93
2023-10-13T19:03:04.867Z,13.48
2023-10-13T19:06:07.263Z,14.85
2023-10-13T19:09:10.161Z,16.92
2023-10-13T19:12:12.766Z,14.50
2023-10-13T19:15:16.016Z,13.53
2023-10-13T19:18:18.423Z,13.48
2023-10-13T19:21:21.743Z,14.05
2023-10-13T19:24:24.254Z,13.63
2023-10-13T19:27:29.563Z,13.95
2023-10-13T19:30:34.051Z,15.10
2023-10-13T19:33:36.490Z,11.30
2023-10-13T19:36:39.037Z,13.30
2023-10-13T19:39:44.580Z,13.13
2023-10-13T19:42:47.269Z,15.23
2023-10-13T19:45:49.931Z,13.10
2023-10-13T19:48:52.483Z,13.23
2023-10-13T19:51:59.180Z,14.70
2023-10-13T19:55:01.687Z,14.00
2023-10-13T19:58:05.316Z,13.07
2023-10-13T20:01:09.223Z,12.30
2023-10-13T20:04:13.816Z,12.95
2023-10-13T20:07:17.592Z,13.50
2023-10-13T20:10:20.916Z,11.10
2023-10-13T20:13:23.873Z,13.38
2023-10-13T20:16:26.555Z,13.30
2023-10-13T20:19:29.056Z,11.52
2023-10-13T20:22:31.478Z,12.40
2023-10-13T20:25:33.961Z,12.57
2023-10-13T20:28:36.535Z,11.40
2023-10-13T20:31:39.190Z,11.87
2023-10-13T20:34:42.756Z,12.73
2023-10-13T20:37:45.160Z,11.00
2023-10-13T20:40:58.998Z,13.88
2023-10-13T20:44:01.880Z,12.02
2023-10-13T20:47:07.968Z,15.97
2023-10-13T20:50:11.658Z,11.65
2023-10-13T20:53:15.340Z,15.27
2023-10-13T20:56:17.727Z,11.07
2023-10-13T20:59:20.589Z,11.45
2023-10-13T21:02:23.752Z,13.50
2023-10-13T21:05:26.238Z,12.48
2023-10-13T21:08:28.697Z,13.52
2023-10-13T21:11:31.109Z,12.77
2023-10-13T21:14:35.400Z,12.70
2023-10-13T21:17:38.050Z,12.40
2023-10-13T21:20:42.408Z,12.60
2023-10-13T21:23:44.893Z,11.18
2023-10-13T21:26:50.404Z,11.68
2023-10-13T21:29:52.802Z,12.45
2023-10-13T21:32:59.221Z,9.77
2023-10-13T21:36:15.101Z,11.40
2023-10-13T21:39:17.494Z,10.95
2023-10-13T21:42:19.853Z,12.70
2023-10-13T21:45:22.215Z,12.23
2023-10-13T21:48:24.606Z,11.60
2023-10-13T21:51:27.937Z,11.95
2023-10-13T21:54:30.400Z,11.57
2023-10-13T21:57:32.860Z,10.18
2023-10-13T22:00:35.320Z,11.80
2023-10-13T22:03:37.878Z,10.33
2023-10-13T22:06:42.453Z,12.27
2023-10-13T22:09:47.527Z,11.55
2023-10-13T22:12:50.660Z,10.32
2023-10-13T22:15:53.060Z,12.63
2023-10-13T22:18:58.189Z,10.93
2023-10-13T22:22:02.139Z,11.63
2023-10-13T22:25:12.424Z,12.20
2023-10-13T22:28:15.227Z,10.48
2023-10-13T22:31:23.340Z,10.40
2023-10-13T22:34:26.958Z,11.47
2023-10-13T22:37:29.412Z,11.07
2023-10-13T22:40:32.123Z,11.25
2023-10-13T22:43:35.133Z,10.70
2023-10-13T22:46:37.583Z,11.38
2023-10-13T22:49:40.849Z,11.07
2023-10-13T22:52:44.835Z,10.43
2023-10-13T22:55:47.444Z,11.50
2023-10-13T22:58:49.808Z,10.85
2023-10-13T23:01:52.291Z,10.35
2023-10-13T23:04:54.663Z,11.00
2023-10-13T23:08:09.660Z,11.32
2023-10-13T23:11:16.440Z,12.32
2023-10-13T23:14:19.831Z,11.90
2023-10-13T23:17:22.590Z,10.75
2023-10-13T23:20:25.050Z,10.30
2023-10-13T23:23:27.428Z,10.35
2023-10-13T23:26:30.160Z,10.52
2023-10-13T23:29:32.609Z,12.10
2023-10-13T23:32:34.997Z,10.07
2023-10-13T23:35:37.366Z,10.45
2023-10-13T23:38:40.739Z,11.98
2023-10-13T23:41:43.430Z,10.95
2023-10-13T23:44:48.007Z,9.60
2023-10-13T23:47:51.325Z,9.77
2023-10-13T23:51:00.810Z,10.60
2023-10-13T23:54:18.293Z,10.57
2023-10-13T23:57:24.943Z,10.88
